Time;durP1;ratioP1;P1;durP2;ratioP2;P2;SDS_P1;SDS_P2;PMS_P1;PMS_P2;Temp;Humidity;BMP_temperature;BMP_pressure;BME280_temperature;BME280_humidity;BME280_pressure;Samples;Min_cycle;Max_cycle;Signal;HPM_P1;HPM_P2
2022/05/11 00:01:58;;;;;;;17.38;13.70;;;;;;;;;;5107555;28;20048;-77
2022/05/11 00:04:29;;;;;;;20.08;13.75;;;;;;;;;;5106674;28;20043;-76
2022/05/11 00:06:59;;;;;;;23.73;15.87;;;;;;;;;;5106936;28;20054;-76
2022/05/11 00:09:29;;;;;;;23.20;14.80;;;;;;;;;;5106080;28;20044;-76
2022/05/11 00:11:59;;;;;;;19.95;15.23;;;;;;;;;;5106521;28;20044;-77
2022/05/11 00:14:29;;;;;;;21.25;13.48;;;;;;;;;;5105485;28;20055;-77
2022/05/11 00:16:59;;;;;;;22.83;15.60;;;;;;;;;;5105948;28;20058;-76
2022/05/11 00:19:29;;;;;;;20.83;15.03;;;;;;;;;;5106579;28;20498;-77
2022/05/11 00:21:59;;;;;;;20.40;15.32;;;;;;;;;;5107026;28;20669;-77
2022/05/11 00:24:29;;;;;;;25.58;16.20;;;;;;;;;;5107408;28;20406;-76
2022/05/11 00:27:02;;;;;;;24.02;16.50;;;;;;;;;;5106949;28;20047;-76
2022/05/11 00:29:34;;;;;;;23.75;17.40;;;;;;;;;;5105494;28;20056;-76
2022/05/11 00:32:04;;;;;;;19.83;13.23;;;;;;;;;;5106296;28;20039;-76
2022/05/11 00:34:35;;;;;;;17.95;12.55;;;;;;;;;;5106172;28;20048;-76
2022/05/11 00:37:05;;;;;;;20.27;14.00;;;;;;;;;;5106112;28;20056;-76
2022/05/11 00:39:35;;;;;;;20.67;14.20;;;;;;;;;;5106554;28;20052;-76
2022/05/11 00:42:06;;;;;;;24.85;14.45;;;;;;;;;;5105848;28;20114;-76
2022/05/11 00:44:36;;;;;;;22.05;13.23;;;;;;;;;;5106171;28;20059;-76
2022/05/11 00:47:28;;;;;;;23.92;13.60;;;;;;;;;;5107747;28;20047;-76
2022/05/11 00:50:05;;;;;;;19.35;14.75;;;;;;;;;;5109274;28;20414;-78
2022/05/11 00:53:09;;;;;;;28.67;15.20;;;;;;;;;;5110730;28;20054;-76
2022/05/11 00:55:47;;;;;;;31.88;14.10;;;;;;;;;;5110208;28;20055;-76
2022/05/11 00:58:33;;;;;;;18.73;15.05;;;;;;;;;;5110422;28;20604;-75
2022/05/11 01:01:04;;;;;;;25.35;19.85;;;;;;;;;;5110511;28;20677;-76
2022/05/11 01:03:46;;;;;;;22.27;15.85;;;;;;;;;;5110249;28;20052;-76
2022/05/11 01:06:18;;;;;;;18.60;12.45;;;;;;;;;;5110350;28;20039;-75
2022/05/11 01:08:49;;;;;;;19.13;13.65;;;;;;;;;;5110448;28;20038;-76
2022/05/11 01:11:19;;;;;;;;;;;;;;;;;;5110345;28;20047;-76
2022/05/11 01:13:49;;;;;;;30.52;17.27;;;;;;;;;;5107949;28;19923;-75
2022/05/11 01:16:21;;;;;;;23.65;14.82;;;;;;;;;;5108081;28;20074;-76
2022/05/11 01:18:52;;;;;;;27.80;18.48;;;;;;;;;;5107199;28;20058;-76
2022/05/11 01:21:25;;;;;;;19.93;14.13;;;;;;;;;;5108077;28;20047;-76
2022/05/11 01:24:03;;;;;;;33.03;14.07;;;;;;;;;;5107155;28;20297;-76
2022/05/11 01:26:33;;;;;;;23.45;14.20;;;;;;;;;;5108509;28;20043;-76
2022/05/11 01:29:04;;;;;;;23.15;15.10;;;;;;;;;;5108876;28;20050;-76
2022/05/11 01:31:34;;;;;;;33.63;15.27;;;;;;;;;;5109940;28;20047;-76
2022/05/11 01:34:04;;;;;;;39.92;16.20;;;;;;;;;;5109694;28;20050;-76
2022/05/11 01:36:35;;;;;;;25.05;16.27;;;;;;;;;;5109007;28;20047;-76
2022/05/11 01:39:08;;;;;;;26.48;15.93;;;;;;;;;;5108407;28;20047;-76
2022/05/11 01:41:51;;;;;;;36.35;16.10;;;;;;;;;;5108849;27;20052;-76
2022/05/11 01:44:22;;;;;;;26.48;16.70;;;;;;;;;;5109579;28;20043;-76
2022/05/11 01:46:59;;;;;;;22.30;14.93;;;;;;;;;;5108926;28;20062;-76
2022/05/11 01:49:30;;;;;;;24.75;15.43;;;;;;;;;;5108585;28;20067;-76
2022/05/11 01:52:00;;;;;;;;;;;;;;;;;;5109922;28;20054;-76
2022/05/11 01:54:31;;;;;;;25.20;17.10;;;;;;;;;;5109693;28;19981;-76
2022/05/11 01:57:01;;;;;;;31.50;16.02;;;;;;;;;;5109426;28;20074;-76
2022/05/11 01:59:31;;;;;;;28.73;18.02;;;;;;;;;;5107557;28;20054;-76
2022/05/11 02:02:01;;;;;;;39.08;17.88;;;;;;;;;;5109033;28;20674;-76
2022/05/11 02:10:08;;;;;;;27.75;16.65;;;;;;;;;;5108529;28;20043;-76
2022/05/11 02:12:38;;;;;;;27.17;15.07;;;;;;;;;;5109474;28;20043;-76
2022/05/11 02:15:10;;;;;;;19.20;14.63;;;;;;;;;;5109057;28;20050;-78
2022/05/11 02:17:41;;;;;;;20.90;14.73;;;;;;;;;;5109553;28;20047;-77
2022/05/11 02:20:13;;;;;;;24.27;15.52;;;;;;;;;;5108790;28;20062;-77
2022/05/11 02:22:44;;;;;;;29.15;20.02;;;;;;;;;;5108229;28;20052;-75
2022/05/11 02:25:16;;;;;;;25.25;20.02;;;;;;;;;;5108310;28;20040;-75
2022/05/11 02:27:48;;;;;;;31.38;22.13;;;;;;;;;;5108697;28;20525;-75
2022/05/11 02:30:23;;;;;;;34.25;22.08;;;;;;;;;;5109158;28;20051;-75
2022/05/11 02:32:54;;;;;;;32.85;21.70;;;;;;;;;;5108525;28;20050;-75
2022/05/11 02:35:25;;;;;;;28.67;20.50;;;;;;;;;;5108567;28;20047;-75
2022/05/11 02:37:58;;;;;;;25.77;19.63;;;;;;;;;;5109007;28;20039;-75
2022/05/11 02:40:31;;;;;;;34.83;21.75;;;;;;;;;;5109262;28;20048;-75
2022/05/11 02:43:02;;;;;;;32.47;19.13;;;;;;;;;;5108531;28;20051;-75
2022/05/11 02:45:34;;;;;;;;;;;;;;;;;;5109157;28;20054;-75
2022/05/11 02:48:04;;;;;;;29.75;17.20;;;;;;;;;;5108597;28;19930;-75
2022/05/11 02:50:41;;;;;;;38.47;19.50;;;;;;;;;;5108545;28;20055;-75
2022/05/11 02:53:11;;;;;;;25.23;17.73;;;;;;;;;;5108437;28;20406;-76
2022/05/11 02:55:44;;;;;;;38.10;18.17;;;;;;;;;;5108136;28;20047;-75
2022/05/11 02:58:17;;;;;;;25.42;16.88;;;;;;;;;;5108477;28;20044;-75
2022/05/11 03:00:49;;;;;;;25.15;16.90;;;;;;;;;;5108635;28;20584;-76
2022/05/11 03:03:21;;;;;;;23.20;17.00;;;;;;;;;;5108965;28;20404;-74
2022/05/11 03:05:54;;;;;;;29.25;17.55;;;;;;;;;;5108420;28;20067;-75
2022/05/11 03:08:25;;;;;;;25.17;16.48;;;;;;;;;;5106405;28;20043;-75
2022/05/11 03:10:56;;;;;;;28.02;17.45;;;;;;;;;;5107695;28;20047;-75
2022/05/11 03:13:26;;;;;;;25.55;18.23;;;;;;;;;;5108073;28;20459;-74
2022/05/11 03:15:56;;;;;;;29.60;18.80;;;;;;;;;;5107464;28;20050;-75
2022/05/11 03:18:26;;;;;;;33.15;18.55;;;;;;;;;;5107428;28;20043;-76
2022/05/11 03:20:57;;;;;;;33.25;18.42;;;;;;;;;;5107380;28;20043;-75
2022/05/11 03:23:28;;;;;;;26.52;17.40;;;;;;;;;;5108528;28;20395;-75
2022/05/11 03:25:58;;;;;;;28.85;15.20;;;;;;;;;;5107816;28;20137;-75
2022/05/11 03:28:29;;;;;;;25.77;16.60;;;;;;;;;;5107313;28;20541;-75
2022/05/11 03:31:00;;;;;;;41.45;17.95;;;;;;;;;;5107549;28;20645;-75
2022/05/11 03:36:19;;;;;;;30.05;18.40;;;;;;;;;;5107150;28;20063;-75
2022/05/11 03:38:48;;;;;;;33.38;18.38;;;;;;;;;;5107512;28;20063;-75
2022/05/11 03:41:18;;;;;;;24.67;17.42;;;;;;;;;;5107070;28;20058;-75
2022/05/11 03:43:48;;;;;;;30.02;17.17;;;;;;;;;;5105898;28;20449;-74
2022/05/11 03:46:18;;;;;;;18.55;12.68;;;;;;;;;;5105826;28;20548;-75
2022/05/11 03:48:48;;;;;;;15.95;11.73;;;;;;;;;;5107438;28;20055;-75
2022/05/11 03:51:18;;;;;;;13.98;9.57;;;;;;;;;;5106965;28;20064;-75
2022/05/11 03:53:48;;;;;;;12.43;9.43;;;;;;;;;;5107107;28;20070;-74
2022/05/11 03:56:18;;;;;;;19.23;8.20;;;;;;;;;;5106924;28;20498;-75
2022/05/11 03:58:48;;;;;;;10.10;6.75;;;;;;;;;;5106693;28;20066;-75
2022/05/11 04:01:19;;;;;;;9.70;6.60;;;;;;;;;;5106997;28;20055;-75
2022/05/11 04:03:49;;;;;;;9.25;6.82;;;;;;;;;;5107623;28;20050;-74
2022/05/11 04:06:21;;;;;;;10.35;7.38;;;;;;;;;;5106583;28;20051;-75
2022/05/11 04:08:51;;;;;;;18.35;7.82;;;;;;;;;;5106737;28;20052;-75
2022/05/11 04:11:22;;;;;;;10.70;6.65;;;;;;;;;;5105176;28;20051;-74
2022/05/11 04:13:54;;;;;;;7.80;5.95;;;;;;;;;;5106102;28;20055;-75
2022/05/11 04:16:24;;;;;;;11.98;5.88;;;;;;;;;;5106597;28;20044;-75
2022/05/11 04:18:55;;;;;;;7.00;5.80;;;;;;;;;;5106999;28;20059;-74
2022/05/11 04:21:26;;;;;;;6.15;5.15;;;;;;;;;;5106931;28;20055;-74
2022/05/11 04:23:56;;;;;;;6.05;5.05;;;;;;;;;;5111126;28;20051;-74
2022/05/11 04:26:30;;;;;;;8.48;5.10;;;;;;;;;;5108259;28;20040;-75
2022/05/11 04:29:00;;;;;;;5.18;4.70;;;;;;;;;;5110955;28;20048;-75
2022/05/11 04:31:30;;;;;;;6.90;5.78;;;;;;;;;;5109061;28;20055;-75
2022/05/11 04:34:00;;;;;;;7.55;5.50;;;;;;;;;;5111492;28;20552;-75
2022/05/11 04:36:30;;;;;;;7.07;4.90;;;;;;;;;;5111167;28;20058;-75
2022/05/11 04:39:00;;;;;;;11.70;5.38;;;;;;;;;;5110856;28;20474;-75
2022/05/11 04:41:36;;;;;;;9.05;5.03;;;;;;;;;;5111240;28;20051;-75
2022/05/11 04:44:06;;;;;;;6.95;5.53;;;;;;;;;;5109269;28;20058;-75
2022/05/11 04:46:37;;;;;;;7.90;5.22;;;;;;;;;;5110921;28;20498;-75
2022/05/11 04:49:23;;;;;;;6.53;5.07;;;;;;;;;;5110450;28;20059;-75
2022/05/11 04:52:23;;;;;;;8.52;5.65;;;;;;;;;;5110616;28;20040;-74
2022/05/11 04:54:53;;;;;;;8.90;6.00;;;;;;;;;;5099215;28;20067;-75
2022/05/11 04:57:24;;;;;;;;;;;;;;;;;;5111621;28;20035;-75
2022/05/11 04:59:54;;;;;;;9.27;7.47;;;;;;;;;;5110514;28;19924;-75
2022/05/11 05:02:27;;;;;;;14.05;8.25;;;;;;;;;;5110767;28;20047;-75
2022/05/11 05:05:00;;;;;;;11.02;8.45;;;;;;;;;;5109945;28;20043;-75
2022/05/11 05:07:34;;;;;;;14.38;9.93;;;;;;;;;;5110398;28;20099;-75
2022/05/11 05:10:07;;;;;;;23.92;11.85;;;;;;;;;;5110560;28;20414;-75
2022/05/11 05:12:37;;;;;;;20.35;11.63;;;;;;;;;;5109314;28;20536;-75
2022/05/11 05:15:08;;;;;;;14.98;10.73;;;;;;;;;;5110489;28;20039;-74
2022/05/11 05:17:39;;;;;;;12.20;9.65;;;;;;;;;;5109752;28;20517;-74
2022/05/11 05:20:12;;;;;;;12.95;9.32;;;;;;;;;;5110306;28;20044;-75
2022/05/11 05:22:42;;;;;;;10.50;8.77;;;;;;;;;;5110485;28;20047;-74
2022/05/11 05:25:12;;;;;;;13.95;7.93;;;;;;;;;;5109915;28;20044;-75
2022/05/11 05:27:42;;;;;;;9.07;7.38;;;;;;;;;;5109102;28;20051;-75
2022/05/11 05:33:01;;;;;;;13.57;8.30;;;;;;;;;;5109834;28;20056;-74
2022/05/11 05:35:31;;;;;;;10.90;8.00;;;;;;;;;;5110443;28;20048;-74
2022/05/11 05:38:03;;;;;;;12.32;9.02;;;;;;;;;;5109708;28;20051;-74
2022/05/11 05:40:33;;;;;;;13.27;9.48;;;;;;;;;;5109290;28;20051;-74
2022/05/11 05:43:06;;;;;;;10.30;7.53;;;;;;;;;;5109597;28;20627;-75
2022/05/11 05:45:36;;;;;;;9.27;7.63;;;;;;;;;;5107945;28;20043;-74
2022/05/11 05:48:07;;;;;;;15.15;9.75;;;;;;;;;;5109190;28;20036;-74
2022/05/11 05:50:37;;;;;;;13.55;10.70;;;;;;;;;;5109406;28;20051;-74
2022/05/11 05:53:06;;;;;;;17.75;11.18;;;;;;;;;;5109413;28;20048;-74
2022/05/11 05:55:37;;;;;;;16.27;12.07;;;;;;;;;;5109384;28;20036;-75
2022/05/11 05:58:07;;;;;;;17.15;13.30;;;;;;;;;;5107744;28;20058;-75
2022/05/11 06:00:37;;;;;;;18.48;12.20;;;;;;;;;;5109341;28;20066;-74
2022/05/11 06:03:07;;;;;;;23.35;14.15;;;;;;;;;;5109069;28;20043;-74
2022/05/11 06:05:37;;;;;;;16.05;12.80;;;;;;;;;;5107204;28;20056;-74
2022/05/11 06:08:08;;;;;;;20.83;12.90;;;;;;;;;;5108830;28;20062;-75
2022/05/11 06:10:39;;;;;;;18.15;12.30;;;;;;;;;;5109389;28;20050;-75
2022/05/11 06:13:12;;;;;;;21.08;12.52;;;;;;;;;;5108896;28;20051;-75
2022/05/11 06:15:43;;;;;;;13.75;11.48;;;;;;;;;;5108754;28;20411;-75
2022/05/11 06:18:13;;;;;;;22.58;13.48;;;;;;;;;;5107207;28;20059;-74
2022/05/11 06:20:43;;;;;;;14.65;11.80;;;;;;;;;;5109665;28;20051;-75
2022/05/11 06:23:13;;;;;;;19.05;12.82;;;;;;;;;;5108746;28;20047;-74
2022/05/11 06:25:43;;;;;;;14.00;11.02;;;;;;;;;;5108697;28;20058;-74
2022/05/11 06:28:13;;;;;;;17.38;11.27;;;;;;;;;;5108196;28;20549;-74
2022/05/11 06:31:04;;;;;;;11.20;8.88;;;;;;;;;;5108363;28;20050;-74
2022/05/11 06:33:38;;;;;;;11.05;8.05;;;;;;;;;;5107122;28;20078;-74
2022/05/11 06:36:09;;;;;;;11.13;7.10;;;;;;;;;;5108346;28;20047;-75
2022/05/11 06:38:39;;;;;;;7.78;6.97;;;;;;;;;;5108121;28;20281;-74
2022/05/11 06:41:20;;;;;;;7.78;6.95;;;;;;;;;;5108239;28;20046;-74
2022/05/11 06:43:52;;;;;;;9.35;7.80;;;;;;;;;;5108739;28;20051;-74
2022/05/11 06:46:23;;;;;;;12.05;8.40;;;;;;;;;;5108370;28;20043;-75
2022/05/11 06:48:53;;;;;;;9.60;7.53;;;;;;;;;;5107961;28;20040;-75
2022/05/11 06:51:23;;;;;;;10.82;8.02;;;;;;;;;;5107993;28;20048;-75
2022/05/11 06:59:33;;;;;;;8.25;7.43;;;;;;;;;;5107748;28;20044;-74
2022/05/11 07:02:04;;;;;;;11.95;7.45;;;;;;;;;;5108337;28;20054;-74
2022/05/11 07:04:37;;;;;;;14.98;8.10;;;;;;;;;;5107916;28;20704;-74
2022/05/11 07:07:07;;;;;;;7.93;7.20;;;;;;;;;;5108474;28;20051;-74
2022/05/11 07:09:39;;;;;;;7.82;6.63;;;;;;;;;;5107830;28;20043;-74
2022/05/11 07:12:25;;;;;;;8.13;7.15;;;;;;;;;;5107486;28;20035;-74
2022/05/11 07:14:59;;;;;;;12.77;6.70;;;;;;;;;;5107512;28;20044;-75
2022/05/11 07:17:40;;;;;;;7.75;6.68;;;;;;;;;;5107551;28;20048;-75
2022/05/11 07:20:19;;;;;;;7.07;6.40;;;;;;;;;;5107695;28;20054;-75
2022/05/11 07:22:49;;;;;;;8.48;6.35;;;;;;;;;;5107039;28;20051;-74
2022/05/11 07:25:22;;;;;;;9.88;6.07;;;;;;;;;;5107744;28;20406;-76
2022/05/11 07:27:53;;;;;;;7.72;6.05;;;;;;;;;;5105979;28;20047;-75
2022/05/11 07:30:32;;;;;;;6.47;5.80;;;;;;;;;;5107630;28;20046;-75
2022/05/11 07:33:08;;;;;;;7.03;5.97;;;;;;;;;;5108106;28;20047;-74
2022/05/11 07:35:38;;;;;;;10.68;6.93;;;;;;;;;;5106900;28;20054;-74
2022/05/11 07:38:10;;;;;;;9.00;7.40;;;;;;;;;;5106959;28;20494;-74
2022/05/11 07:40:42;;;;;;;11.32;8.80;;;;;;;;;;5107184;28;20047;-75
2022/05/11 07:43:12;;;;;;;;;;;;;;;;;;5107468;28;20052;-74
2022/05/11 07:45:42;;;;;;;11.05;8.07;;;;;;;;;;5107014;28;19924;-75
2022/05/11 07:48:12;;;;;;;9.90;8.90;;;;;;;;;;5106929;28;20495;-74
2022/05/11 07:50:42;;;;;;;11.40;9.02;;;;;;;;;;5107238;28;20048;-75
2022/05/11 07:53:13;;;;;;;13.10;10.40;;;;;;;;;;5108070;28;20055;-74
2022/05/11 07:55:43;;;;;;;11.75;9.05;;;;;;;;;;5107302;28;20043;-75
2022/05/11 08:01:02;;;;;;;12.85;9.95;;;;;;;;;;5107320;28;20048;-74
2022/05/11 08:03:32;;;;;;;12.60;10.60;;;;;;;;;;5107153;28;20043;-74
2022/05/11 08:06:04;;;;;;;11.55;10.10;;;;;;;;;;5107248;28;20043;-75
2022/05/11 08:08:34;;;;;;;15.07;10.50;;;;;;;;;;5107056;28;20055;-74
2022/05/11 08:11:04;;;;;;;18.05;11.07;;;;;;;;;;5107130;28;20048;-74
2022/05/11 08:13:34;;;;;;;15.73;10.77;;;;;;;;;;5107212;28;20051;-74
2022/05/11 08:16:06;;;;;;;17.10;9.85;;;;;;;;;;5107053;28;20055;-74
2022/05/11 08:18:36;;;;;;;11.20;9.88;;;;;;;;;;5106833;28;20070;-74
2022/05/11 08:21:09;;;;;;;13.60;10.63;;;;;;;;;;5107340;28;20422;-74
2022/05/11 08:23:40;;;;;;;22.85;10.00;;;;;;;;;;5107358;28;20055;-76
2022/05/11 08:26:10;;;;;;;16.70;10.60;;;;;;;;;;5106720;28;20062;-74
2022/05/11 08:28:41;;;;;;;17.50;10.70;;;;;;;;;;5106828;28;20761;-74
2022/05/11 08:33:59;;;;;;;13.93;10.25;;;;;;;;;;5107596;28;20055;-74
2022/05/11 08:36:38;;;;;;;16.35;10.15;;;;;;;;;;5106608;28;20047;-74
2022/05/11 08:39:09;;;;;;;13.13;10.05;;;;;;;;;;5106924;28;20046;-76
2022/05/11 08:41:48;;;;;;;13.80;10.02;;;;;;;;;;5106666;28;20043;-74
2022/05/11 08:44:21;;;;;;;16.52;10.85;;;;;;;;;;5107697;28;20047;-74
2022/05/11 08:46:58;;;;;;;15.75;10.75;;;;;;;;;;5106859;28;20631;-74
2022/05/11 08:49:46;;;;;;;14.07;10.55;;;;;;;;;;5105934;28;20047;-75
2022/05/11 08:52:49;;;;;;;11.73;9.63;;;;;;;;;;5106467;28;20051;-74
2022/05/11 08:55:47;;;;;;;10.88;9.10;;;;;;;;;;5106016;28;20050;-74
2022/05/11 08:58:33;;;;;;;8.13;7.15;;;;;;;;;;5106007;28;20493;-76
2022/05/11 09:01:07;;;;;;;7.85;6.95;;;;;;;;;;5105971;28;20771;-76
2022/05/11 09:03:41;;;;;;;10.45;8.63;;;;;;;;;;5105815;28;20044;-74
2022/05/11 09:06:31;;;;;;;9.98;7.90;;;;;;;;;;5106521;28;20055;-75
2022/05/11 09:09:03;;;;;;;10.02;7.78;;;;;;;;;;5109104;28;20051;-74
2022/05/11 09:11:50;;;;;;;14.95;7.95;;;;;;;;;;5110184;28;20417;-74
2022/05/11 09:14:37;;;;;;;10.70;7.60;;;;;;;;;;5110090;28;20047;-74
2022/05/11 09:17:28;;;;;;;8.57;7.38;;;;;;;;;;5109453;28;20054;-74
2022/05/11 09:20:01;;;;;;;11.95;7.38;;;;;;;;;;5109972;28;20401;-75
2022/05/11 09:22:34;;;;;;;8.27;6.95;;;;;;;;;;5109959;28;20051;-74
2022/05/11 09:25:20;;;;;;;8.25;7.45;;;;;;;;;;5108520;28;20052;-74
2022/05/11 09:27:51;;;;;;;7.82;7.03;;;;;;;;;;5109984;28;20046;-74
2022/05/11 09:30:25;;;;;;;13.02;7.00;;;;;;;;;;5109920;28;20043;-74
2022/05/11 09:33:40;;;;;;;7.47;6.15;;;;;;;;;;5109475;28;20035;-74
2022/05/11 09:36:11;;;;;;;9.57;6.65;;;;;;;;;;5109958;28;20521;-74
2022/05/11 09:39:15;;;;;;;10.07;5.97;;;;;;;;;;5109387;28;20074;-74
2022/05/11 09:41:49;;;;;;;7.85;6.63;;;;;;;;;;5109528;28;20498;-78
2022/05/11 09:44:24;;;;;;;10.50;7.28;;;;;;;;;;5109385;28;20047;-76
2022/05/11 09:46:56;;;;;;;18.67;13.13;;;;;;;;;;5109484;28;20067;-75
2022/05/11 09:49:27;;;;;;;13.40;7.15;;;;;;;;;;5109654;28;20518;-76
2022/05/11 09:51:59;;;;;;;10.90;7.93;;;;;;;;;;5109501;28;20045;-77
2022/05/11 09:54:50;;;;;;;7.40;6.57;;;;;;;;;;5107846;28;20062;-76
2022/05/11 09:57:26;;;;;;;9.10;6.88;;;;;;;;;;5109312;28;20056;-75
2022/05/11 10:00:29;;;;;;;8.73;6.88;;;;;;;;;;5109259;28;20048;-75
2022/05/11 10:03:03;;;;;;;10.57;6.70;;;;;;;;;;5109337;28;20047;-76
2022/05/11 10:05:44;;;;;;;8.95;6.68;;;;;;;;;;5107575;28;20055;-77
2022/05/11 10:08:33;;;;;;;9.00;7.28;;;;;;;;;;5108817;28;20047;-74
2022/05/11 10:11:06;;;;;;;14.77;6.72;;;;;;;;;;5108423;28;20039;-75
2022/05/11 10:13:44;;;;;;;10.57;7.53;;;;;;;;;;5108886;28;20047;-74
2022/05/11 10:22:14;;;;;;;12.55;8.93;;;;;;;;;;5085237;28;20062;-75
2022/05/11 10:25:07;;;;;;;14.45;8.95;;;;;;;;;;5105833;28;20058;-75
2022/05/11 10:27:42;;;;;;;14.48;8.40;;;;;;;;;;5101325;28;20518;-75
2022/05/11 10:30:28;;;;;;;11.25;10.13;;;;;;;;;;5108185;28;20432;-75
2022/05/11 10:33:11;;;;;;;14.43;9.55;;;;;;;;;;5107657;28;20506;-75
2022/05/11 10:36:19;;;;;;;21.02;16.95;;;;;;;;;;5108567;28;20040;-74
2022/05/11 10:39:02;;;;;;;24.90;9.60;;;;;;;;;;5108546;28;20502;-75
2022/05/11 10:41:57;;;;;;;10.73;8.80;;;;;;;;;;5108854;28;20043;-75
2022/05/11 10:44:51;;;;;;;12.55;9.18;;;;;;;;;;5108241;28;20039;-75
2022/05/11 10:47:45;;;;;;;16.65;9.13;;;;;;;;;;5108404;28;20530;-75
2022/05/11 10:50:26;;;;;;;12.32;9.82;;;;;;;;;;5106736;28;20062;-75
2022/05/11 10:52:56;;;;;;;15.77;10.23;;;;;;;;;;5107955;28;20062;-75
2022/05/11 10:55:56;;;;;;;22.23;10.57;;;;;;;;;;5108281;28;20051;-75
2022/05/11 10:58:51;;;;;;;13.55;9.20;;;;;;;;;;5080370;28;20063;-75
2022/05/11 11:01:30;;;;;;;17.70;9.18;;;;;;;;;;5107469;28;20047;-76
2022/05/11 11:04:27;;;;;;;18.50;9.63;;;;;;;;;;5108423;28;20047;-75
2022/05/11 11:07:21;;;;;;;17.15;10.43;;;;;;;;;;5107703;28;20666;-73
2022/05/11 11:10:09;;;;;;;15.35;11.48;;;;;;;;;;5108194;28;20062;-73
2022/05/11 11:13:03;;;;;;;13.55;9.48;;;;;;;;;;5107855;28;20792;-73
2022/05/11 11:15:38;;;;;;;18.52;11.00;;;;;;;;;;5105404;28;20067;-73
2022/05/11 11:18:12;;;;;;;17.83;11.23;;;;;;;;;;5086245;28;20051;-74
2022/05/11 11:20:46;;;;;;;15.25;10.88;;;;;;;;;;5084756;28;20048;-76
2022/05/11 11:23:16;;;;;;;19.10;10.00;;;;;;;;;;5084381;28;20051;-75
2022/05/11 11:25:52;;;;;;;18.73;9.98;;;;;;;;;;5085340;28;20036;-75
2022/05/11 11:28:28;;;;;;;15.07;9.38;;;;;;;;;;5085209;28;20171;-76
2022/05/11 11:30:59;;;;;;;17.13;8.57;;;;;;;;;;5084893;28;20036;-76
2022/05/11 11:33:34;;;;;;;10.45;7.93;;;;;;;;;;5084682;28;20055;-77
2022/05/11 11:36:17;;;;;;;15.20;9.40;;;;;;;;;;5086247;28;20044;-75
2022/05/11 11:38:49;;;;;;;7.93;6.70;;;;;;;;;;5086813;28;20052;-75
2022/05/11 11:41:23;;;;;;;20.58;8.50;;;;;;;;;;5086113;28;20048;-75
2022/05/11 11:44:00;;;;;;;9.68;7.65;;;;;;;;;;5086649;28;20043;-74
2022/05/11 11:46:42;;;;;;;10.52;7.50;;;;;;;;;;5084581;28;20060;-75
2022/05/11 11:49:19;;;;;;;8.65;6.80;;;;;;;;;;5086712;28;20036;-75
2022/05/11 11:51:53;;;;;;;7.38;6.13;;;;;;;;;;5086835;28;20047;-75
2022/05/11 11:54:45;;;;;;;9.70;6.13;;;;;;;;;;5086859;28;20036;-75
2022/05/11 11:57:24;;;;;;;16.23;7.35;;;;;;;;;;5086826;28;20060;-75
2022/05/11 12:00:05;;;;;;;8.50;6.60;;;;;;;;;;5086382;28;20060;-77
2022/05/11 12:02:43;;;;;;;11.60;6.05;;;;;;;;;;5086994;28;20048;-76
2022/05/11 12:05:24;;;;;;;9.73;6.80;;;;;;;;;;5086782;28;20048;-75
2022/05/11 12:17:12;;;;;;;8.68;6.70;;;;;;;;;;5087089;28;20502;-76
2022/05/11 12:20:02;;;;;;;7.20;6.50;;;;;;;;;;5086525;28;20055;-75
2022/05/11 12:22:39;;;;;;;10.40;7.22;;;;;;;;;;5085853;28;20534;-74
2022/05/11 12:25:22;;;;;;;10.27;7.05;;;;;;;;;;5086329;28;20161;-75
2022/05/11 12:27:52;;;;;;;10.30;7.35;;;;;;;;;;5086111;28;20048;-75
2022/05/11 12:30:42;;;;;;;10.53;7.73;;;;;;;;;;5086359;28;20051;-75
2022/05/11 12:33:34;;;;;;;11.15;6.45;;;;;;;;;;5086279;28;20043;-76
2022/05/11 12:36:05;;;;;;;15.52;7.05;;;;;;;;;;5086253;28;20503;-76
2022/05/11 12:38:40;;;;;;;8.80;6.75;;;;;;;;;;5086378;28;20419;-75
2022/05/11 12:41:17;;;;;;;14.95;8.80;;;;;;;;;;5086374;28;20040;-76
2022/05/11 12:44:00;;;;;;;11.05;6.35;;;;;;;;;;5087206;28;20495;-75
2022/05/11 12:46:33;;;;;;;14.57;6.97;;;;;;;;;;5090440;28;20043;-76
2022/05/11 12:49:05;;;;;;;7.35;5.68;;;;;;;;;;5090287;28;20538;-75
2022/05/11 12:51:40;;;;;;;5.93;5.32;;;;;;;;;;5090000;28;20048;-78
2022/05/11 12:54:20;;;;;;;16.23;6.50;;;;;;;;;;5089988;28;20048;-75
2022/05/11 12:57:17;;;;;;;8.02;5.97;;;;;;;;;;5090276;28;20044;-76
2022/05/11 12:59:55;;;;;;;8.60;5.90;;;;;;;;;;5089994;28;20517;-77
2022/05/11 13:02:33;;;;;;;43.63;7.53;;;;;;;;;;5090453;28;20415;-76
2022/05/11 13:05:08;;;;;;;12.48;7.38;;;;;;;;;;5090394;28;20051;-77
2022/05/11 13:08:01;;;;;;;10.02;6.32;;;;;;;;;;5088453;28;20048;-76
2022/05/11 13:10:35;;;;;;;9.23;6.18;;;;;;;;;;5089481;28;20048;-76
2022/05/11 13:13:13;;;;;;;9.00;6.13;;;;;;;;;;5089582;28;20044;-76
2022/05/11 13:15:47;;;;;;;8.93;5.03;;;;;;;;;;5089891;28;20406;-76
2022/05/11 13:18:29;;;;;;;6.72;5.35;;;;;;;;;;5089859;28;20044;-77
2022/05/11 13:21:02;;;;;;;9.45;5.82;;;;;;;;;;5089422;28;20048;-77
2022/05/11 13:23:50;;;;;;;12.02;6.00;;;;;;;;;;5089787;28;20044;-76
2022/05/11 13:26:29;;;;;;;13.25;6.35;;;;;;;;;;5090364;28;20040;-76
2022/05/11 13:29:22;;;;;;;10.75;6.00;;;;;;;;;;5089328;28;20584;-76
2022/05/11 13:32:06;;;;;;;10.50;6.43;;;;;;;;;;5089821;28;20043;-77
2022/05/11 13:34:42;;;;;;;18.23;6.18;;;;;;;;;;5089565;28;20048;-77
2022/05/11 13:37:26;;;;;;;9.75;5.30;;;;;;;;;;5089636;28;20419;-76
2022/05/11 13:39:57;;;;;;;8.35;5.38;;;;;;;;;;5089127;28;20055;-77
2022/05/11 13:42:30;;;;;;;5.47;4.50;;;;;;;;;;5089058;28;20036;-76
2022/05/11 13:45:04;;;;;;;6.28;4.47;;;;;;;;;;5089034;28;20051;-77
2022/05/11 13:50:28;;;;;;;5.28;4.65;;;;;;;;;;5089816;28;20063;-76
2022/05/11 13:53:04;;;;;;;6.68;4.70;;;;;;;;;;5087733;28;20499;-76
2022/05/11 13:55:41;;;;;;;12.23;4.40;;;;;;;;;;5087742;28;20415;-76
2022/05/11 13:58:25;;;;;;;4.88;4.43;;;;;;;;;;5088560;28;20048;-76
2022/05/11 14:01:03;;;;;;;7.72;4.70;;;;;;;;;;5088907;28;20063;-76
2022/05/11 14:03:40;;;;;;;9.20;4.70;;;;;;;;;;5088724;28;20399;-75
2022/05/11 14:06:16;;;;;;;15.60;4.93;;;;;;;;;;5086319;28;20055;-75
2022/05/11 14:08:47;;;;;;;6.32;4.65;;;;;;;;;;5088346;28;20055;-76
2022/05/11 14:11:19;;;;;;;5.80;4.57;;;;;;;;;;5089087;28;20055;-76
2022/05/11 14:13:50;;;;;;;5.20;4.70;;;;;;;;;;5088493;28;20048;-75
2022/05/11 14:16:26;;;;;;;25.55;6.43;;;;;;;;;;5088339;28;20530;-75
2022/05/11 14:18:58;;;;;;;9.73;4.82;;;;;;;;;;5089049;28;20051;-76
2022/05/11 14:21:28;;;;;;;9.80;5.60;;;;;;;;;;5088311;28;20044;-75
2022/05/11 14:23:58;;;;;;;13.23;5.80;;;;;;;;;;5088800;28;20040;-75
2022/05/11 14:26:28;;;;;;;8.65;5.10;;;;;;;;;;5088485;28;20606;-75
2022/05/11 14:28:58;;;;;;;8.45;5.13;;;;;;;;;;5088392;28;20063;-76
2022/05/11 14:31:28;;;;;;;8.82;4.50;;;;;;;;;;5088558;28;20040;-75
2022/05/11 14:33:59;;;;;;;6.40;4.80;;;;;;;;;;5088753;28;20071;-75
2022/05/11 14:36:31;;;;;;;11.35;4.78;;;;;;;;;;5087067;28;20423;-76
2022/05/11 14:39:02;;;;;;;5.82;4.13;;;;;;;;;;5088548;28;20051;-77
2022/05/11 14:41:32;;;;;;;12.15;4.57;;;;;;;;;;5087624;28;20044;-75
2022/05/11 14:44:02;;;;;;;5.20;4.25;;;;;;;;;;5087879;28;20051;-75
2022/05/11 14:46:32;;;;;;;10.05;5.25;;;;;;;;;;5086494;28;20419;-75
2022/05/11 14:49:02;;;;;;;21.95;6.20;;;;;;;;;;5087885;28;20537;-75
2022/05/11 14:51:34;;;;;;;14.00;5.90;;;;;;;;;;5088101;28;20056;-75
2022/05/11 14:54:10;;;;;;;6.88;4.25;;;;;;;;;;5088205;28;20036;-75
2022/05/11 14:56:40;;;;;;;9.38;4.38;;;;;;;;;;5087864;28;20040;-75
2022/05/11 15:02:00;;;;;;;6.38;3.40;;;;;;;;;;5087972;28;20059;-76
2022/05/11 15:04:40;;;;;;;4.18;3.03;;;;;;;;;;5087458;28;20051;-75
2022/05/11 15:07:12;;;;;;;4.68;2.42;;;;;;;;;;5087562;28;20040;-75
2022/05/11 15:09:43;;;;;;;11.80;2.88;;;;;;;;;;5087827;28;20051;-75
2022/05/11 15:15:02;;;;;;;3.08;2.78;;;;;;;;;;5087786;28;20052;-76
2022/05/11 15:17:32;;;;;;;14.27;4.25;;;;;;;;;;5085734;28;20048;-81
2022/05/11 15:20:19;;;;;;;3.58;2.72;;;;;;;;;;5087404;28;20044;-76
2022/05/11 15:22:52;;;;;;;5.55;2.60;;;;;;;;;;5087211;28;20044;-76
2022/05/11 15:25:22;;;;;;;11.32;2.92;;;;;;;;;;5087803;28;20048;-76
2022/05/11 15:27:53;;;;;;;2.88;2.22;;;;;;;;;;5087025;28;20048;-77
2022/05/11 15:30:23;;;;;;;4.10;2.00;;;;;;;;;;5087397;28;20052;-77
2022/05/11 15:32:58;;;;;;;5.15;2.60;;;;;;;;;;5087282;28;20048;-76
2022/05/11 15:35:31;;;;;;;4.78;2.50;;;;;;;;;;5087135;28;20043;-76
2022/05/11 15:38:03;;;;;;;7.70;2.88;;;;;;;;;;5087431;28;20044;-76
2022/05/11 15:40:34;;;;;;;6.60;2.88;;;;;;;;;;5086610;28;20052;-75
2022/05/11 15:43:05;;;;;;;5.45;3.00;;;;;;;;;;5087452;28;20066;-76
2022/05/11 15:45:56;;;;;;;4.28;2.60;;;;;;;;;;5086819;28;20051;-76
2022/05/11 15:48:26;;;;;;;3.85;2.85;;;;;;;;;;5086750;28;20040;-76
2022/05/11 15:50:56;;;;;;;3.00;2.55;;;;;;;;;;5086679;28;20052;-76
2022/05/11 15:53:34;;;;;;;6.60;2.50;;;;;;;;;;5086687;28;20391;-76
2022/05/11 15:56:08;;;;;;;4.82;2.22;;;;;;;;;;5086523;28;20101;-76
2022/05/11 15:58:39;;;;;;;3.85;2.20;;;;;;;;;;5086945;28;20056;-77
2022/05/11 16:01:14;;;;;;;3.72;2.40;;;;;;;;;;5086406;28;20411;-76
2022/05/11 16:03:47;;;;;;;5.47;2.60;;;;;;;;;;5086764;28;20063;-76